Time;durP1;ratioP1;P1;durP2;ratioP2;P2;SDS_P1;SDS_P2;PMS_P1;PMS_P2;Temp;Humidity;BMP_temperature;BMP_pressure;BME280_temperature;BME280_humidity;BME280_pressure;Samples;Min_cycle;Max_cycle;Signal;HPM_P1;HPM_P2
2022/09/06 00:00:34;;;;;;;6.03;4.65;;;17.90;99.90;;;;;;4999029;28;20221;-90
2022/09/06 00:03:00;;;;;;;4.68;4.10;;;18.00;99.90;;;;;;4999037;28;20218;-89
2022/09/06 00:05:27;;;;;;;6.93;4.30;;;17.90;99.90;;;;;;4999394;28;20183;-90
2022/09/06 00:07:54;;;;;;;5.95;4.30;;;18.00;99.90;;;;;;4998967;28;20194;-89
2022/09/06 00:10:19;;;;;;;4.63;4.22;;;18.00;99.90;;;;;;4998739;28;20229;-90
2022/09/06 00:12:46;;;;;;;6.32;4.85;;;17.90;99.90;;;;;;4998233;28;20211;-89
2022/09/06 00:15:12;;;;;;;5.10;4.60;;;17.80;99.90;;;;;;4998379;28;20183;-89
2022/09/06 00:17:38;;;;;;;6.32;4.68;;;17.70;99.90;;;;;;4998256;28;20179;-89
2022/09/06 00:20:07;;;;;;;6.10;4.38;;;17.60;99.90;;;;;;4998437;28;20186;-90
2022/09/06 00:22:35;;;;;;;4.50;4.10;;;17.50;99.90;;;;;;4998436;28;20203;-89
2022/09/06 00:25:02;;;;;;;5.95;4.70;;;17.40;99.90;;;;;;4998456;28;20183;-90
2022/09/06 00:27:28;;;;;;;5.28;4.15;;;17.40;99.90;;;;;;4998273;28;20182;-90
2022/09/06 00:29:54;;;;;;;4.70;4.22;;;17.40;99.90;;;;;;4997962;28;20186;-89
2022/09/06 00:32:19;;;;;;;5.28;4.45;;;17.40;99.90;;;;;;4998307;28;20227;-90
2022/09/06 00:34:45;;;;;;;4.70;4.30;;;17.40;99.90;;;;;;4998140;28;20184;-90
2022/09/06 00:37:11;;;;;;;5.70;4.70;;;17.40;99.90;;;;;;4998276;28;20254;-89
2022/09/06 00:39:37;;;;;;;4.93;4.35;;;17.40;99.90;;;;;;4998256;28;20175;-89
2022/09/06 00:42:07;;;;;;;4.93;4.15;;;17.40;99.90;;;;;;4998221;28;20199;-89
2022/09/06 00:44:33;;;;;;;4.97;4.47;;;17.30;99.90;;;;;;4998311;28;20180;-89
2022/09/06 00:46:59;;;;;;;5.13;4.63;;;17.30;99.90;;;;;;4998618;28;20241;-90
2022/09/06 00:49:29;;;;;;;4.93;4.00;;;17.20;99.90;;;;;;5017528;28;20208;-90
2022/09/06 00:52:14;;;;;;;4.80;4.20;;;17.10;99.90;;;;;;5017164;28;20238;-90
2022/09/06 00:54:41;;;;;;;4.60;4.20;;;17.10;99.90;;;;;;5017847;28;20179;-89
2022/09/06 00:57:07;;;;;;;5.70;4.57;;;17.00;99.90;;;;;;5012557;28;20270;-89
2022/09/06 00:59:36;;;;;;;4.73;4.33;;;17.00;99.90;;;;;;5009135;28;20274;-90
2022/09/06 01:02:04;;;;;;;5.50;4.60;;;17.00;99.90;;;;;;5017458;28;20199;-90
2022/09/06 01:04:31;;;;;;;5.10;4.60;;;17.00;99.90;;;;;;5017119;28;20174;-90
2022/09/06 01:07:19;;;;;;;6.37;4.60;;;17.00;99.90;;;;;;5000821;28;20179;-89
2022/09/06 01:10:19;;;;;;;5.20;4.70;;;16.90;99.90;;;;;;4997663;28;20175;-89
2022/09/06 01:13:00;;;;;;;5.85;4.50;;;16.90;99.90;;;;;;4997591;28;20210;-89
2022/09/06 01:15:47;;;;;;;5.47;4.50;;;16.80;99.90;;;;;;4997691;28;20191;-89
2022/09/06 01:18:36;;;;;;;5.18;4.68;;;16.80;99.90;;;;;;4997729;28;20171;-89
2022/09/06 01:21:44;;;;;;;10.37;5.20;;;16.70;99.90;;;;;;4997657;28;20199;-89
2022/09/06 01:24:24;;;;;;;4.50;4.10;;;16.70;99.90;;;;;;5013789;28;20178;-89
2022/09/06 01:27:08;;;;;;;5.60;5.10;;;16.70;99.90;;;;;;4997456;28;20237;-90
2022/09/06 01:29:43;;;;;;;5.27;4.77;;;16.80;99.90;;;;;;4997848;28;20222;-90
2022/09/06 01:32:29;;;;;;;7.50;5.03;;;16.80;99.90;;;;;;4997041;28;20214;-89
2022/09/06 01:35:11;;;;;;;5.23;4.83;;;16.80;99.90;;;;;;4997241;28;20238;-89
2022/09/06 01:37:37;;;;;;;6.05;5.25;;;16.70;99.90;;;;;;4996936;28;20175;-89
2022/09/06 01:40:03;;;;;;;7.07;4.97;;;16.70;99.90;;;;;;4997109;28;20185;-89
2022/09/06 01:42:32;;;;;;;5.90;5.40;;;16.70;99.90;;;;;;4997274;28;20233;-89
2022/09/06 01:45:13;;;;;;;6.17;5.03;;;16.60;99.90;;;;;;4997323;28;20617;-89
2022/09/06 01:47:39;;;;;;;5.70;5.00;;;16.70;99.90;;;;;;4996926;28;20183;-89
2022/09/06 01:50:24;;;;;;;5.40;4.87;;;16.70;99.90;;;;;;4997212;28;20247;-89
2022/09/06 01:53:22;;;;;;;5.47;4.87;;;16.70;99.90;;;;;;4996778;28;20322;-90
2022/09/06 01:56:14;;;;;;;6.53;4.43;;;16.70;99.90;;;;;;4980878;28;20262;-89
2022/09/06 01:59:18;;;;;;;6.30;4.80;;;16.70;99.90;;;;;;4947834;28;20283;-89
2022/09/06 02:02:07;;;;;;;6.50;4.87;;;16.80;99.90;;;;;;4993749;28;20214;-89
2022/09/06 02:04:54;;;;;;;5.30;4.80;;;16.80;99.90;;;;;;4993451;28;20251;-89
2022/09/06 02:07:25;;;;;;;6.83;5.10;;;16.80;99.90;;;;;;4993051;28;20279;-89
2022/09/06 02:10:11;;;;;;;5.90;4.80;;;16.80;99.90;;;;;;4993371;28;20184;-89
2022/09/06 02:12:41;;;;;;;6.20;5.43;;;16.80;99.90;;;;;;4993311;28;20302;-90
2022/09/06 02:15:18;;;;;;;5.53;5.03;;;16.90;99.90;;;;;;4993379;28;20180;-90
2022/09/06 02:17:54;;;;;;;6.97;5.00;;;16.90;99.90;;;;;;4992408;28;20226;-90
2022/09/06 02:20:33;;;;;;;5.97;4.60;;;16.90;99.90;;;;;;4992688;28;20172;-90
2022/09/06 02:23:04;;;;;;;6.67;5.07;;;16.90;99.90;;;;;;4993300;28;20176;-90
2022/09/06 02:25:37;;;;;;;5.90;5.13;;;16.90;99.90;;;;;;4993441;28;20199;-89
2022/09/06 02:28:06;;;;;;;6.37;4.80;;;16.80;99.90;;;;;;4992863;28;20174;-89
2022/09/06 02:30:37;;;;;;;6.13;5.53;;;16.80;99.90;;;;;;4998120;28;20187;-90
2022/09/06 02:33:08;;;;;;;7.18;5.30;;;16.80;99.90;;;;;;4996820;28;20194;-89
2022/09/06 02:35:46;;;;;;;6.17;5.57;;;16.80;99.90;;;;;;4995820;28;20198;-90
2022/09/06 02:38:12;;;;;;;6.17;5.40;;;16.80;99.90;;;;;;4996486;28;20197;-89
2022/09/06 02:40:41;;;;;;;5.60;4.70;;;16.80;99.90;;;;;;4995856;28;20237;-89
2022/09/06 02:43:07;;;;;;;6.15;5.55;;;16.80;99.90;;;;;;4996124;28;20182;-89
2022/09/06 02:45:33;;;;;;;5.27;4.80;;;16.80;99.90;;;;;;4995671;28;20187;-90
2022/09/06 02:48:23;;;;;;;8.03;5.53;;;16.70;99.90;;;;;;5003663;28;20195;-89
2022/09/06 02:50:49;;;;;;;6.70;6.10;;;16.50;99.90;;;;;;5011080;28;20206;-89
2022/09/06 02:53:15;;;;;;;6.97;6.20;;;16.50;99.90;;;;;;4996329;28;20206;-89
2022/09/06 02:55:42;;;;;;;7.13;6.43;;;16.60;99.90;;;;;;4996193;28;20206;-89
2022/09/06 02:58:14;;;;;;;6.77;5.80;;;16.70;99.90;;;;;;4995916;28;20186;-90
2022/09/06 03:00:40;;;;;;;10.60;6.00;;;16.80;99.90;;;;;;4996150;28;20234;-89
2022/09/06 03:03:06;;;;;;;6.90;5.97;;;16.90;99.90;;;;;;4996280;28;20183;-90
2022/09/06 03:05:33;;;;;;;7.30;5.77;;;17.10;99.90;;;;;;4995908;28;20636;-89
2022/09/06 03:07:59;;;;;;;7.20;6.00;;;17.20;99.90;;;;;;4995967;28;20189;-89
2022/09/06 03:10:25;;;;;;;6.35;5.72;;;17.20;99.90;;;;;;4995975;28;20218;-89
2022/09/06 03:12:52;;;;;;;6.43;5.70;;;17.30;99.90;;;;;;4995528;28;20218;-89
2022/09/06 03:15:18;;;;;;;5.93;5.23;;;17.20;99.90;;;;;;4996136;28;20179;-90
2022/09/06 03:17:44;;;;;;;7.13;5.28;;;17.20;99.90;;;;;;4996057;28;20176;-89
2022/09/06 03:20:11;;;;;;;6.80;5.25;;;17.20;99.90;;;;;;4995878;28;20308;-89
2022/09/06 03:22:38;;;;;;;5.88;5.22;;;17.20;99.90;;;;;;4995890;28;20207;-89
2022/09/06 03:25:06;;;;;;;6.23;5.30;;;17.20;99.90;;;;;;4996198;28;20194;-89
2022/09/06 03:27:32;;;;;;;6.53;5.20;;;17.10;99.90;;;;;;5012100;28;20190;-89
2022/09/06 03:29:59;;;;;;;5.67;5.07;;;17.10;99.90;;;;;;4998028;28;20219;-89
2022/09/06 03:32:25;;;;;;;6.10;5.10;;;17.10;99.90;;;;;;4999623;28;20297;-89
2022/09/06 03:34:51;;;;;;;5.90;5.30;;;17.00;99.90;;;;;;4999354;28;20271;-89
2022/09/06 03:37:18;;;;;;;5.40;4.90;;;16.90;99.90;;;;;;4999205;28;20181;-89
2022/09/06 03:39:44;;;;;;;6.83;5.53;;;16.90;99.90;;;;;;4999392;28;20183;-89
2022/09/06 03:42:10;;;;;;;6.35;5.38;;;16.90;99.90;;;;;;5015890;28;20256;-89
2022/09/06 03:44:36;;;;;;;5.73;5.17;;;16.90;99.90;;;;;;4999558;28;20278;-89
2022/09/06 03:47:02;;;;;;;7.07;4.90;;;16.80;99.90;;;;;;4999270;28;20180;-90
2022/09/06 03:49:28;;;;;;;5.50;5.00;;;16.80;99.90;;;;;;4999461;28;20186;-89
2022/09/06 03:51:54;;;;;;;8.73;5.37;;;16.80;99.90;;;;;;5015609;28;20219;-89
2022/09/06 03:54:20;;;;;;;6.37;5.50;;;16.80;99.90;;;;;;5015529;28;20176;-90
2022/09/06 03:56:46;;;;;;;5.83;5.27;;;16.80;99.90;;;;;;4999062;28;20229;-90
2022/09/06 03:59:12;;;;;;;7.70;5.40;;;16.80;99.90;;;;;;4999167;28;20179;-89
2022/09/06 04:01:50;;;;;;;6.28;5.65;;;16.80;99.90;;;;;;4998064;28;20210;-89
2022/09/06 04:04:16;;;;;;;6.67;5.70;;;16.80;99.90;;;;;;4999341;28;20206;-89
2022/09/06 04:06:42;;;;;;;6.70;5.70;;;16.80;99.90;;;;;;4999159;28;20180;-89
2022/09/06 04:09:08;;;;;;;6.70;5.97;;;16.80;99.90;;;;;;4998936;28;20198;-89
2022/09/06 04:11:33;;;;;;;7.07;5.87;;;16.80;99.90;;;;;;4998674;28;20211;-90
2022/09/06 04:13:59;;;;;;;7.40;5.90;;;16.70;99.90;;;;;;4998718;28;20205;-89
2022/09/06 04:16:25;;;;;;;6.17;5.57;;;16.70;99.90;;;;;;4998905;28;20190;-90
2022/09/06 04:18:51;;;;;;;6.17;5.53;;;16.70;99.90;;;;;;4998426;28;20207;-89
2022/09/06 04:21:17;;;;;;;6.43;5.67;;;16.70;99.90;;;;;;4998592;28;20279;-89
2022/09/06 04:23:43;;;;;;;6.80;5.70;;;16.70;99.90;;;;;;4998391;28;20191;-89
2022/09/06 04:26:09;;;;;;;6.93;5.70;;;16.70;99.90;;;;;;4998681;28;20183;-89
2022/09/06 04:28:35;;;;;;;6.30;5.40;;;16.70;99.90;;;;;;4998374;28;20183;-89
2022/09/06 04:31:02;;;;;;;8.57;5.63;;;16.60;99.90;;;;;;4998378;28;20713;-89
2022/09/06 04:33:29;;;;;;;5.87;5.27;;;16.60;99.90;;;;;;4998180;28;20211;-89
2022/09/06 04:35:58;;;;;;;6.30;5.63;;;16.50;99.90;;;;;;4998574;28;20198;-89
2022/09/06 04:38:28;;;;;;;7.70;5.40;;;16.60;99.90;;;;;;4998282;28;20267;-89
2022/09/06 04:40:54;;;;;;;6.20;5.60;;;16.50;99.90;;;;;;4994236;28;20204;-89
2022/09/06 04:43:21;;;;;;;6.37;5.77;;;16.30;99.90;;;;;;5026327;28;20186;-89
2022/09/06 04:45:47;;;;;;;7.87;6.17;;;16.20;99.90;;;;;;5017749;28;20186;-89
2022/09/06 04:48:16;;;;;;;5.50;5.00;;;16.20;99.90;;;;;;5017580;28;20186;-89
2022/09/06 04:50:42;;;;;;;7.67;5.57;;;16.20;99.90;;;;;;5000233;28;20225;-89
2022/09/06 04:53:09;;;;;;;6.60;5.77;;;16.20;99.90;;;;;;5019115;28;20234;-89
2022/09/06 04:55:36;;;;;;;10.70;5.67;;;16.10;99.90;;;;;;5017840;28;20182;-89
2022/09/06 04:58:09;;;;;;;8.20;5.20;;;16.10;99.90;;;;;;5016873;28;20179;-89
2022/09/06 05:00:37;;;;;;;7.97;5.53;;;16.20;99.90;;;;;;5017679;28;20202;-90
2022/09/06 05:03:03;;;;;;;8.70;5.40;;;16.20;99.90;;;;;;5034146;28;20182;-89
2022/09/06 05:05:29;;;;;;;6.47;5.63;;;16.20;99.90;;;;;;5017147;28;20186;-90
2022/09/06 05:07:56;;;;;;;6.67;6.00;;;16.20;99.90;;;;;;5005801;28;20187;-90
2022/09/06 05:10:23;;;;;;;7.90;5.60;;;16.20;99.90;;;;;;5013986;28;20559;-89
2022/09/06 05:12:51;;;;;;;10.30;6.23;;;16.20;99.90;;;;;;5013243;28;20673;-90
2022/09/06 05:15:18;;;;;;;7.27;6.10;;;16.20;99.90;;;;;;4997878;28;20179;-89
2022/09/06 05:17:44;;;;;;;7.30;6.13;;;16.20;99.90;;;;;;4997511;28;20172;-90
2022/09/06 05:20:29;;;;;;;7.87;6.20;;;16.20;99.90;;;;;;5010537;28;20247;-90
2022/09/06 05:22:55;;;;;;;7.33;5.70;;;16.20;99.90;;;;;;5017002;28;20262;-89
2022/09/06 05:25:21;;;;;;;8.50;5.70;;;16.20;99.90;;;;;;5008259;28;20263;-90
2022/09/06 05:27:47;;;;;;;8.43;6.40;;;16.20;99.90;;;;;;5031173;28;20179;-90
2022/09/06 05:30:14;;;;;;;7.67;5.80;;;16.20;99.90;;;;;;5017117;28;20175;-90
2022/09/06 05:32:55;;;;;;;6.60;6.00;;;16.30;99.90;;;;;;5016446;28;20246;-90
2022/09/06 05:35:21;;;;;;;7.00;5.97;;;16.30;99.90;;;;;;5017130;28;20191;-89
2022/09/06 05:37:47;;;;;;;8.17;6.67;;;16.40;99.90;;;;;;5025944;28;20179;-89
2022/09/06 05:40:13;;;;;;;9.10;7.00;;;16.50;99.90;;;;;;5015354;28;20172;-89
2022/09/06 05:42:39;;;;;;;8.37;5.93;;;16.50;99.90;;;;;;5001262;28;20378;-89
2022/09/06 05:45:06;;;;;;;7.67;6.53;;;16.60;99.90;;;;;;4997370;28;20266;-90
2022/09/06 05:47:34;;;;;;;6.53;5.93;;;16.60;99.90;;;;;;4997468;28;20191;-89
2022/09/06 05:50:01;;;;;;;6.93;6.20;;;16.60;99.90;;;;;;4997298;28;20317;-89
2022/09/06 05:52:27;;;;;;;6.70;6.00;;;16.70;99.90;;;;;;4996848;28;20210;-89
2022/09/06 05:54:55;;;;;;;7.67;5.77;;;16.70;99.90;;;;;;5005485;28;20167;-89
2022/09/06 05:57:21;;;;;;;7.07;6.43;;;16.70;99.90;;;;;;5033075;28;20242;-89
2022/09/06 05:59:47;;;;;;;7.00;6.30;;;16.80;99.90;;;;;;5002549;28;20214;-89
2022/09/06 06:02:13;;;;;;;7.30;6.57;;;16.80;99.90;;;;;;5032967;28;20668;-89
2022/09/06 06:04:39;;;;;;;7.33;6.50;;;16.90;99.90;;;;;;5016210;28;20178;-90
2022/09/06 06:07:04;;;;;;;9.60;6.70;;;16.80;99.90;;;;;;5006985;28;20195;-89
2022/09/06 06:09:31;;;;;;;8.00;6.23;;;16.90;99.90;;;;;;4996668;28;20181;-90
2022/09/06 06:11:59;;;;;;;6.67;6.00;;;16.90;99.90;;;;;;5013621;28;20219;-89
2022/09/06 06:14:25;;;;;;;8.40;6.53;;;16.90;99.90;;;;;;4997482;28;20190;-89
2022/09/06 06:16:51;;;;;;;10.50;7.43;;;16.90;99.90;;;;;;4995374;28;20278;-89
2022/09/06 06:19:17;;;;;;;8.37;6.47;;;16.90;99.90;;;;;;4998412;28;20214;-89
2022/09/06 06:21:43;;;;;;;7.83;6.70;;;16.90;99.90;;;;;;4997041;28;20225;-89
2022/09/06 06:24:09;;;;;;;8.17;6.07;;;17.00;99.90;;;;;;4996983;28;20222;-89
2022/09/06 06:26:36;;;;;;;8.23;6.90;;;17.10;99.90;;;;;;4996527;28;20210;-90
2022/09/06 06:29:04;;;;;;;7.07;6.37;;;17.10;99.90;;;;;;4997200;28;20290;-89
2022/09/06 06:31:31;;;;;;;8.43;6.53;;;17.20;99.90;;;;;;4996743;28;20203;-90
2022/09/06 06:33:58;;;;;;;7.63;6.87;;;17.30;99.90;;;;;;4997360;28;20229;-90
2022/09/06 06:36:25;;;;;;;8.13;7.27;;;17.50;99.90;;;;;;4996325;28;20198;-89
2022/09/06 06:38:54;;;;;;;7.38;6.22;;;17.60;99.90;;;;;;4996659;28;20172;-90
2022/09/06 06:41:26;;;;;;;6.68;6.00;;;17.70;99.90;;;;;;4996945;28;20252;-90
2022/09/06 06:43:57;;;;;;;6.93;6.32;;;17.90;99.90;;;;;;4997322;28;20226;-90
2022/09/06 06:46:25;;;;;;;9.82;6.43;;;18.00;99.90;;;;;;4997556;28;20251;-89
2022/09/06 06:48:53;;;;;;;7.72;6.93;;;18.00;99.90;;;;;;4996814;28;20194;-89
2022/09/06 06:51:27;;;;;;;7.20;6.50;;;18.20;99.90;;;;;;5002275;28;20293;-89
2022/09/06 06:53:55;;;;;;;9.57;6.63;;;18.30;99.90;;;;;;5007687;28;20226;-90
2022/09/06 06:56:39;;;;;;;6.90;6.30;;;18.40;99.90;;;;;;4996959;28;20179;-90
2022/09/06 06:59:06;;;;;;;8.45;5.95;;;18.50;99.90;;;;;;4996368;28;20271;-87
2022/09/06 07:01:35;;;;;;;6.40;5.80;;;18.60;99.90;;;;;;4996488;28;20207;-90
2022/09/06 07:04:02;;;;;;;7.13;5.72;;;18.70;99.90;;;;;;4996899;28;20618;-90
2022/09/06 07:06:28;;;;;;;6.88;5.97;;;18.80;99.90;;;;;;4996609;28;20199;-89
2022/09/06 07:08:58;;;;;;;7.82;5.40;;;18.80;99.90;;;;;;5013069;28;20659;-89
2022/09/06 07:11:24;;;;;;;6.22;5.63;;;18.90;99.90;;;;;;4999852;28;20222;-89
2022/09/06 07:13:50;;;;;;;10.45;5.93;;;18.80;99.90;;;;;;5000226;28;20187;-89
2022/09/06 07:16:28;;;;;;;9.10;5.53;;;18.80;99.90;;;;;;4999599;28;20237;-90
2022/09/06 07:19:00;;;;;;;6.72;5.75;;;18.80;99.90;;;;;;5000608;28;20167;-89
2022/09/06 07:21:56;;;;;;;12.15;5.78;;;18.90;99.90;;;;;;5016459;28;20200;-89
2022/09/06 07:24:30;;;;;;;9.55;5.55;;;19.00;99.90;;;;;;5016594;28;20243;-89
2022/09/06 07:27:11;;;;;;;5.97;5.45;;;19.00;99.90;;;;;;5016136;28;20217;-89
2022/09/06 07:29:38;;;;;;;6.65;5.95;;;19.10;99.90;;;;;;5000316;28;20210;-89
2022/09/06 07:32:04;;;;;;;7.70;5.22;;;19.00;99.90;;;;;;5000160;28;20223;-83
2022/09/06 07:34:32;;;;;;;7.78;5.68;;;19.00;99.90;;;;;;4999437;28;20264;-89
2022/09/06 07:36:58;;;;;;;7.68;5.60;;;19.10;99.90;;;;;;4999226;28;20171;-90
2022/09/06 07:39:24;;;;;;;6.45;5.60;;;19.20;99.90;;;;;;4999226;28;20175;-90
2022/09/06 07:41:50;;;;;;;7.50;5.22;;;19.20;99.90;;;;;;4998939;28;20209;-89
2022/09/06 07:44:16;;;;;;;6.40;5.38;;;19.30;99.90;;;;;;4998536;28;20190;-89
2022/09/06 07:46:41;;;;;;;5.45;4.95;;;19.40;99.90;;;;;;4999866;28;20185;-89
2022/09/06 07:49:08;;;;;;;6.30;5.13;;;19.50;99.90;;;;;;5009996;28;20274;-89
2022/09/06 07:51:33;;;;;;;6.20;5.45;;;19.50;99.90;;;;;;4999957;28;20199;-89
2022/09/06 07:53:59;;;;;;;5.53;5.03;;;19.60;99.90;;;;;;5018166;28;20248;-89
2022/09/06 07:56:25;;;;;;;10.90;5.57;;;19.70;99.90;;;;;;5036276;28;20166;-88
2022/09/06 07:58:51;;;;;;;8.18;4.95;;;19.80;99.90;;;;;;5019149;28;20205;-89
2022/09/06 08:01:34;;;;;;;6.70;4.80;;;19.90;99.90;;;;;;5018096;28;20203;-88
2022/09/06 08:04:06;;;;;;;6.07;4.65;;;20.10;99.90;;;;;;5015776;28;20176;-89
2022/09/06 08:06:34;;;;;;;7.45;5.13;;;20.20;99.90;;;;;;5020772;28;20166;-89
2022/09/06 08:09:01;;;;;;;5.82;4.57;;;20.40;99.90;;;;;;5019027;28;20178;-89
2022/09/06 08:11:31;;;;;;;8.90;4.60;;;20.50;99.90;;;;;;5035420;28;20195;-89
2022/09/06 08:13:59;;;;;;;8.68;4.97;;;20.70;99.90;;;;;;5008410;28;20187;-89
2022/09/06 08:16:26;;;;;;;5.82;5.13;;;20.90;99.90;;;;;;5017637;28;20178;-90
2022/09/06 08:18:55;;;;;;;8.02;4.72;;;21.10;99.90;;;;;;5000792;28;20700;-89
2022/09/06 08:21:23;;;;;;;7.65;4.93;;;21.30;99.90;;;;;;4999835;28;20199;-89
2022/09/06 08:23:51;;;;;;;6.35;5.00;;;21.40;99.90;;;;;;5000998;28;20182;-89
2022/09/06 08:26:19;;;;;;;6.93;4.68;;;21.60;99.90;;;;;;5009808;28;20187;-89
2022/09/06 08:28:46;;;;;;;11.65;4.75;;;21.80;99.90;;;;;;5018321;28;20175;-89
2022/09/06 08:31:14;;;;;;;8.27;4.53;;;22.00;99.90;;;;;;5018958;28;20365;-89
2022/09/06 08:33:42;;;;;;;5.20;4.68;;;22.10;99.90;;;;;;5032303;28;20194;-89
2022/09/06 08:36:10;;;;;;;4.50;4.10;;;22.30;99.90;;;;;;5013874;28;20222;-90
2022/09/06 08:38:36;;;;;;;8.18;4.85;;;22.40;99.90;;;;;;5007513;28;20254;-89
2022/09/06 08:41:10;;;;;;;8.48;4.35;;;22.50;99.90;;;;;;5011359;28;20198;-90
2022/09/06 08:43:38;;;;;;;7.20;4.38;;;22.50;99.90;;;;;;5013150;28;20257;-90
2022/09/06 08:46:08;;;;;;;5.47;4.20;;;22.70;99.90;;;;;;5006292;28;20193;-90
2022/09/06 08:48:38;;;;;;;6.72;4.13;;;22.70;99.90;;;;;;5024051;28;20222;-90
2022/09/06 08:51:04;;;;;;;4.47;3.80;;;22.80;99.90;;;;;;5007202;28;20210;-90
2022/09/06 08:53:45;;;;;;;4.55;3.80;;;22.90;99.90;;;;;;5011425;28;20214;-90
2022/09/06 08:56:41;;;;;;;7.15;4.20;;;23.00;99.90;;;;;;5009867;28;20241;-90
2022/09/06 08:59:16;;;;;;;14.10;4.38;;;23.20;99.90;;;;;;5002407;28;20200;-90
2022/09/06 09:02:09;;;;;;;6.93;4.18;;;23.30;99.90;;;;;;5025024;28;20202;-90
2022/09/06 09:04:39;;;;;;;4.20;3.80;;;23.20;99.90;;;;;;5001703;28;20245;-90
2022/09/06 09:07:28;;;;;;;4.68;4.13;;;23.40;99.90;;;;;;5013813;28;20268;-90
2022/09/06 09:09:57;;;;;;;5.13;3.67;;;23.50;99.90;;;;;;4996763;28;20208;-90
2022/09/06 09:12:25;;;;;;;4.15;3.63;;;23.50;99.90;;;;;;4994437;28;20294;-90
2022/09/06 09:15:07;;;;;;;5.75;4.00;;;23.60;99.90;;;;;;4998290;28;20187;-91
2022/09/06 09:17:35;;;;;;;4.78;4.28;;;23.60;99.90;;;;;;4995787;28;20172;-90
2022/09/06 09:20:01;;;;;;;4.75;3.70;;;23.70;99.90;;;;;;5014461;28;20266;-91
2022/09/06 09:22:30;;;;;;;5.95;3.75;;;23.80;99.90;;;;;;4995432;28;20199;-90
2022/09/06 09:24:59;;;;;;;6.25;4.20;;;23.80;99.90;;;;;;4989561;28;20168;-91
2022/09/06 09:27:32;;;;;;;5.88;3.90;;;23.90;99.90;;;;;;4998321;28;20186;-91
2022/09/06 09:30:08;;;;;;;6.68;3.90;;;23.90;99.90;;;;;;4998351;28;20180;-90
2022/09/06 09:32:44;;;;;;;5.53;3.80;;;23.90;99.90;;;;;;4983631;28;20211;-90
2022/09/06 09:35:21;;;;;;;8.98;4.43;;;23.90;99.90;;;;;;4989517;28;20195;-85
2022/09/06 09:37:54;;;;;;;7.00;4.53;;;23.90;99.90;;;;;;4997129;28;20205;-90
2022/09/06 09:40:24;;;;;;;5.43;4.22;;;23.90;99.90;;;;;;4997256;28;20180;-90
2022/09/06 09:43:11;;;;;;;5.43;3.65;;;23.90;99.90;;;;;;5013408;28;20203;-90
2022/09/06 09:46:13;;;;;;;4.60;3.90;;;23.90;99.90;;;;;;4994810;28;20251;-90
2022/09/06 09:49:02;;;;;;;4.82;3.95;;;23.90;99.90;;;;;;4971421;28;20192;-90
2022/09/06 09:51:43;;;;;;;5.25;4.03;;;23.90;99.90;;;;;;4997210;28;20293;-90
2022/09/06 09:54:12;;;;;;;4.35;3.70;;;24.00;99.90;;;;;;5007146;28;20210;-90
2022/09/06 09:56:51;;;;;;;5.28;4.18;;;24.00;99.90;;;;;;4996929;28;20175;-90
2022/09/06 10:00:00;;;;;;;4.72;3.88;;;24.10;99.90;;;;;;4995366;28;20179;-90
2022/09/06 10:02:37;;;;;;;7.75;4.28;;;24.10;99.90;;;;;;4993855;28;20199;-90
2022/09/06 10:05:15;;;;;;;7.03;3.95;;;24.00;99.90;;;;;;5012403;28;20198;-90
2022/09/06 10:07:48;;;;;;;6.55;4.30;;;24.10;99.90;;;;;;5010833;28;20214;-88
2022/09/06 10:10:31;;;;;;;7.47;4.30;;;24.20;99.90;;;;;;5001190;28;20175;-90
2022/09/06 10:13:09;;;;;;;5.63;4.18;;;24.40;99.90;;;;;;4992845;28;20210;-89
2022/09/06 10:15:48;;;;;;;8.85;4.80;;;24.50;99.90;;;;;;4993086;28;20179;-89
2022/09/06 10:18:54;;;;;;;9.70;4.45;;;24.70;99.90;;;;;;5007229;28;20270;-89
2022/09/06 10:21:36;;;;;;;8.40;4.40;;;24.90;99.90;;;;;;5007471;28;20238;-89
2022/09/06 10:24:35;;;;;;;7.40;4.15;;;25.20;99.90;;;;;;5001900;28;20182;-89
2022/09/06 10:27:19;;;;;;;7.78;3.95;;;25.30;99.90;;;;;;4976996;28;20187;-88
2022/09/06 10:30:08;;;;;;;5.40;3.92;;;25.50;99.90;;;;;;5019591;28;20246;-88
2022/09/06 10:33:07;;;;;;;7.55;4.00;;;25.60;99.90;;;;;;5022005;28;20265;-89
2022/09/06 10:35:37;;;;;;;6.22;4.38;;;25.60;99.90;;;;;;4995649;28;20183;-89
2022/09/06 10:38:31;;;;;;;7.30;3.92;;;25.60;99.90;;;;;;4992322;28;20196;-89
2022/09/06 10:41:27;;;;;;;6.65;3.45;;;25.60;99.90;;;;;;4995255;28;20203;-89
2022/09/06 10:44:07;;;;;;;7.13;3.90;;;25.70;99.90;;;;;;5012494;28;20210;-89
2022/09/06 10:46:52;;;;;;;8.82;4.07;;;25.70;99.90;;;;;;5009882;28;20182;-85
2022/09/06 10:49:21;;;;;;;10.15;4.88;;;25.70;99.90;;;;;;5000843;28;20202;-84
2022/09/06 10:52:01;;;;;;;12.45;4.03;;;25.70;99.90;;;;;;4999783;28;20286;-84
2022/09/06 10:54:37;;;;;;;10.82;4.30;;;25.50;99.90;;;;;;4991267;28;20183;-85
2022/09/06 10:57:20;;;;;;;7.88;4.18;;;25.40;99.90;;;;;;5008874;28;20186;-86
2022/09/06 11:00:14;;;;;;;9.13;3.80;;;25.40;99.90;;;;;;5007812;28;20184;-89
2022/09/06 11:03:05;;;;;;;9.07;3.95;;;25.50;99.90;;;;;;4995312;28;20202;-88
2022/09/06 11:05:40;;;;;;;5.60;3.83;;;25.50;99.90;;;;;;4998636;28;20185;-91
2022/09/06 11:08:35;;;;;;;4.85;3.38;;;25.50;99.90;;;;;;4994350;28;20266;-89
2022/09/06 11:11:10;;;;;;;6.03;3.75;;;25.50;99.90;;;;;;4981024;28;20243;-90
2022/09/06 11:13:43;;;;;;;5.20;3.70;;;25.60;99.90;;;;;;5009072;28;20229;-89
2022/09/06 11:16:19;;;;;;;10.60;4.15;;;25.60;99.90;;;;;;5001602;28;20179;-89
2022/09/06 11:19:03;;;;;;;7.05;3.92;;;25.60;99.90;;;;;;4992346;28;20179;-89
2022/09/06 11:21:48;;;;;;;6.88;3.80;;;25.60;99.90;;;;;;5008702;28;20195;-89
2022/09/06 11:24:54;;;;;;;7.20;3.88;;;25.70;99.90;;;;;;4994347;28;20201;-89
2022/09/06 11:27:44;;;;;;;5.78;3.58;;;25.80;99.90;;;;;;4970405;28;20195;-89
2022/09/06 11:30:15;;;;;;;7.90;3.80;;;25.80;99.90;;;;;;4989332;28;20183;-90
2022/09/06 11:32:48;;;;;;;6.78;3.50;;;25.90;99.90;;;;;;4995332;28;20215;-90
2022/09/06 11:35:31;;;;;;;8.30;3.90;;;26.10;99.90;;;;;;4995414;28;20191;-89
2022/09/06 11:38:15;;;;;;;7.25;3.50;;;26.00;99.90;;;;;;4995428;28;20194;-90
2022/09/06 11:41:03;;;;;;;6.68;3.35;;;26.10;99.90;;;;;;4982630;28;20194;-85
2022/09/06 11:43:48;;;;;;;8.45;3.83;;;26.20;99.90;;;;;;4995626;28;20183;-89
2022/09/06 11:46:32;;;;;;;8.57;3.60;;;26.30;99.90;;;;;;4995508;28;20164;-90
2022/09/06 11:49:04;;;;;;;9.25;3.38;;;26.40;99.90;;;;;;4997724;28;20186;-89
2022/09/06 11:51:36;;;;;;;9.50;3.30;;;26.50;99.90;;;;;;4998164;28;20261;-89
2022/09/06 11:54:16;;;;;;;9.57;3.25;;;26.80;99.90;;;;;;5015505;28;20320;-89
2022/09/06 11:56:45;;;;;;;7.38;3.67;;;26.90;99.90;;;;;;5005828;28;20163;-83
2022/09/06 11:59:18;;;;;;;6.22;3.60;;;27.00;99.90;;;;;;5002921;28;20179;-83
2022/09/06 12:02:06;;;;;;;8.80;3.40;;;27.00;99.90;;;;;;4998606;28;20196;-83
2022/09/06 12:04:57;;;;;;;6.30;3.40;;;27.10;99.90;;;;;;4998819;28;20168;-83
2022/09/06 12:07:23;;;;;;;9.07;3.33;;;27.30;99.90;;;;;;4998105;28;20187;-83
2022/09/06 12:09:50;;;;;;;6.90;3.00;;;27.50;99.90;;;;;;4998665;28;20206;-91
2022/09/06 12:12:43;;;;;;;7.72;3.67;;;27.60;99.90;;;;;;5002993;28;20202;-92
2022/09/06 12:15:24;;;;;;;7.35;3.53;;;27.70;99.90;;;;;;4984091;28;20267;-89
2022/09/06 12:17:51;;;;;;;11.48;4.07;;;27.90;99.90;;;;;;5013923;28;20247;-89
2022/09/06 12:20:50;;;;;;;5.78;3.17;;;28.00;99.90;;;;;;5026864;28;20177;-89
2022/09/06 12:23:42;;;;;;;7.07;3.25;;;28.00;99.90;;;;;;5017493;28;20186;-89
2022/09/06 12:26:11;;;;;;;7.78;3.92;;;28.10;99.90;;;;;;5011339;28;20191;-89
2022/09/06 12:28:53;;;;;;;6.22;2.83;;;28.30;99.90;;;;;;5014066;28;20285;-89
2022/09/06 12:31:37;;;;;;;6.47;3.15;;;28.30;99.90;;;;;;4994557;28;20236;-89
2022/09/06 12:34:28;;;;;;;5.57;3.15;;;28.40;99.90;;;;;;5001724;28;20183;-88
2022/09/06 12:37:05;;;;;;;7.78;3.35;;;28.40;99.90;;;;;;4996355;28;20186;-88
2022/09/06 12:39:35;;;;;;;5.97;2.92;;;28.20;99.90;;;;;;5014858;28;20214;-90
2022/09/06 12:42:06;;;;;;;7.85;3.08;;;28.40;99.90;;;;;;5000633;28;20215;-90
2022/09/06 12:44:52;;;;;;;12.02;3.63;;;28.70;99.90;;;;;;5023811;28;20183;-89
2022/09/06 12:47:50;;;;;;;6.90;2.97;;;28.80;99.90;;;;;;5025130;28;20186;-89
2022/09/06 12:50:24;;;;;;;5.47;3.00;;;28.80;99.90;;;;;;5013034;28;20191;-89
2022/09/06 12:53:01;;;;;;;5.63;2.72;;;28.80;99.90;;;;;;5000586;28;20286;-90
2022/09/06 12:55:36;;;;;;;6.35;2.80;;;28.60;99.90;;;;;;5020147;28;20170;-90
2022/09/06 12:58:08;;;;;;;3.63;2.50;;;28.70;99.90;;;;;;5015304;28;20210;-90
2022/09/06 13:00:47;;;;;;;6.43;3.20;;;28.70;99.90;;;;;;5007655;28;20286;-90
2022/09/06 13:03:38;;;;;;;4.28;2.90;;;28.70;99.90;;;;;;5005747;28;20186;-90
2022/09/06 13:06:06;;;;;;;7.82;2.97;;;28.70;99.90;;;;;;4995549;28;20275;-90
2022/09/06 13:08:54;;;;;;;4.00;2.70;;;28.70;99.90;;;;;;4990084;28;20223;-90
2022/09/06 13:11:29;;;;;;;7.10;2.53;;;28.60;99.90;;;;;;4993527;28;20218;-90
2022/09/06 13:13:56;;;;;;;3.80;2.63;;;28.60;99.90;;;;;;4993132;28;20206;-87
2022/09/06 13:16:35;;;;;;;4.53;2.63;;;28.60;99.90;;;;;;4989265;28;20184;-86